createdAt,value
2023-03-05T00:00:02.094Z,99.99
2023-03-05T00:01:02.021Z,99.99
2023-03-05T00:02:02.052Z,99.99
2023-03-05T00:03:01.999Z,99.99
2023-03-05T00:04:02.018Z,99.99
2023-03-05T00:05:01.984Z,99.99
2023-03-05T00:06:01.977Z,99.99
2023-03-05T00:07:01.977Z,99.99
2023-03-05T00:08:01.953Z,99.99
2023-03-05T00:09:01.993Z,99.99
2023-03-05T00:10:01.908Z,99.99
2023-03-05T00:11:01.910Z,99.99
2023-03-05T00:12:01.921Z,99.99
2023-03-05T00:13:01.895Z,99.99
2023-03-05T00:14:01.890Z,99.95
2023-03-05T00:15:01.851Z,99.99
2023-03-05T00:16:01.891Z,99.99
2023-03-05T00:17:01.841Z,99.99
2023-03-05T00:18:01.835Z,99.99
2023-03-05T00:19:01.810Z,99.99
2023-03-05T00:20:02.513Z,99.99
2023-03-05T00:21:01.820Z,99.99
2023-03-05T00:22:01.794Z,99.99
2023-03-05T00:23:01.764Z,99.99
2023-03-05T00:24:01.805Z,99.99
2023-03-05T00:25:01.737Z,99.91
2023-03-05T00:26:01.735Z,99.99
2023-03-05T00:27:01.754Z,99.99
2023-03-05T00:28:01.713Z,99.74
2023-03-05T00:29:01.717Z,99.43
2023-03-05T00:30:01.713Z,99.95
2023-03-05T00:31:01.752Z,99.99
2023-03-05T00:32:01.719Z,99.99
2023-03-05T00:33:01.648Z,99.99
2023-03-05T00:34:01.767Z,99.99
2023-03-05T00:35:01.643Z,99.38
2023-03-05T00:36:01.680Z,99.49
2023-03-05T00:37:01.611Z,99.22
2023-03-05T00:38:01.600Z,99.43
2023-03-05T00:39:01.609Z,99.59
2023-03-05T00:40:01.708Z,99.54
2023-03-05T00:41:01.582Z,99.70
2023-03-05T00:42:01.594Z,99.91
2023-03-05T00:43:01.541Z,99.85
2023-03-05T00:44:01.556Z,99.74
2023-03-05T00:45:01.521Z,99.74
2023-03-05T00:46:01.545Z,99.64
2023-03-05T00:47:01.495Z,99.64
2023-03-05T00:48:01.551Z,99.74
2023-03-05T00:49:01.491Z,99.64
2023-03-05T00:50:01.490Z,99.43
2023-03-05T00:51:01.466Z,99.43
2023-03-05T00:52:01.461Z,99.11
2023-03-05T00:53:07.451Z,99.79
2023-03-05T00:54:01.434Z,99.64
2023-03-05T00:55:01.402Z,99.43
2023-03-05T00:56:01.427Z,99.54
2023-03-05T00:57:01.381Z,99.54
2023-03-05T00:58:01.406Z,99.54
2023-03-05T00:59:01.362Z,99.11
2023-03-05T01:00:01.394Z,99.54
2023-03-05T01:01:01.338Z,99.79
2023-03-05T01:02:01.410Z,99.74
2023-03-05T01:03:01.331Z,99.79
2023-03-05T01:04:01.306Z,99.74
2023-03-05T01:05:01.337Z,99.64
2023-03-05T01:06:01.320Z,99.74
2023-03-05T01:07:01.265Z,99.64
2023-03-05T01:08:01.272Z,99.48
2023-03-05T01:09:01.245Z,99.58
2023-03-05T01:10:01.264Z,99.64
2023-03-05T01:11:01.209Z,99.95
2023-03-05T01:12:01.227Z,99.99
2023-03-05T01:13:01.216Z,99.99
2023-03-05T01:14:01.201Z,99.99
2023-03-05T01:15:01.165Z,99.99
2023-03-05T01:16:01.208Z,99.99
2023-03-05T01:17:01.135Z,99.99
2023-03-05T01:18:01.137Z,99.99
2023-03-05T01:19:01.138Z,99.99
2023-03-05T01:20:01.116Z,99.99
2023-03-05T01:21:01.099Z,99.90
2023-03-05T01:22:01.127Z,99.99
2023-03-05T01:23:01.067Z,99.90
2023-03-05T01:24:01.080Z,99.79
2023-03-05T01:25:01.041Z,99.99
2023-03-05T01:26:01.037Z,99.99
2023-03-05T01:27:01.038Z,99.99
2023-03-05T01:28:01.014Z,99.99
2023-03-05T01:29:01.017Z,99.99
2023-03-05T01:30:01.003Z,99.99
2023-03-05T01:31:00.976Z,99.99
2023-03-05T01:32:01.040Z,99.99
2023-03-05T01:33:00.948Z,99.99
2023-03-05T01:34:00.977Z,99.99
2023-03-05T01:35:00.924Z,99.99
2023-03-05T01:36:00.933Z,99.99
2023-03-05T01:37:00.932Z,99.99
2023-03-05T01:38:00.930Z,99.99
2023-03-05T01:39:00.880Z,99.99
2023-03-05T01:40:00.928Z,99.99
2023-03-05T01:41:00.858Z,99.99
2023-03-05T01:42:00.895Z,99.99
2023-03-05T01:43:00.837Z,99.99
2023-03-05T01:44:00.847Z,99.99
2023-03-05T01:45:00.837Z,99.99
2023-03-05T01:46:00.846Z,99.99
2023-03-05T01:47:00.816Z,99.99
2023-03-05T01:48:00.824Z,99.99
2023-03-05T01:49:00.797Z,99.99
2023-03-05T01:50:00.786Z,99.99
2023-03-05T01:51:00.745Z,99.99
2023-03-05T01:52:00.783Z,99.99
2023-03-05T01:53:00.730Z,99.99
2023-03-05T01:54:00.746Z,99.99
2023-03-05T01:55:00.708Z,99.99
2023-03-05T01:56:00.695Z,99.99
2023-03-05T01:57:00.700Z,99.99
2023-03-05T01:58:00.672Z,99.99
2023-03-05T01:59:00.659Z,99.99
2023-03-05T02:00:00.665Z,99.99
2023-03-05T02:01:00.670Z,99.99
2023-03-05T02:02:00.652Z,99.99
2023-03-05T02:03:00.609Z,99.99
2023-03-05T02:04:00.833Z,99.99
2023-03-05T02:05:00.600Z,99.99
2023-03-05T02:06:00.617Z,99.99
2023-03-05T02:07:00.566Z,99.99
2023-03-05T02:08:00.558Z,99.99
2023-03-05T02:09:00.548Z,99.99
2023-03-05T02:10:00.561Z,99.99
2023-03-05T02:11:00.540Z,99.99
2023-03-05T02:12:00.532Z,99.99
2023-03-05T02:13:00.501Z,99.99
2023-03-05T02:14:00.490Z,99.99
2023-03-05T02:15:00.479Z,99.99
2023-03-05T02:16:00.514Z,99.99
2023-03-05T02:17:00.470Z,99.99
2023-03-05T02:18:00.446Z,99.99
2023-03-05T02:19:00.438Z,99.99
2023-03-05T02:20:00.449Z,99.99
2023-03-05T02:21:00.407Z,99.99
2023-03-05T02:22:00.428Z,99.99
2023-03-05T02:23:00.402Z,99.99
2023-03-05T02:24:00.379Z,99.99
2023-03-05T02:25:00.388Z,99.99
2023-03-05T02:26:00.377Z,99.99
2023-03-05T02:27:00.364Z,99.99
2023-03-05T02:28:00.355Z,99.77
2023-03-05T02:29:00.336Z,99.67
2023-03-05T02:30:00.320Z,99.77
2023-03-05T02:31:00.295Z,99.99
2023-03-05T02:32:00.456Z,99.99
2023-03-05T02:33:00.276Z,99.99
2023-03-05T02:34:00.303Z,99.99
2023-03-05T02:35:00.270Z,99.99
2023-03-05T02:36:00.319Z,99.88
2023-03-05T02:37:00.248Z,99.77
2023-03-05T02:38:00.233Z,99.25
2023-03-05T02:39:00.213Z,99.77
2023-03-05T02:40:00.222Z,99.35
2023-03-05T02:41:00.199Z,99.46
2023-03-05T02:42:00.223Z,99.46
2023-03-05T02:43:00.166Z,99.67
2023-03-05T02:44:00.158Z,99.67
2023-03-05T02:45:00.145Z,99.40
2023-03-05T02:46:00.264Z,99.67
2023-03-05T02:47:00.134Z,99.77
2023-03-05T02:48:00.129Z,99.77
2023-03-05T02:49:00.137Z,99.67
2023-03-05T02:50:00.124Z,99.82
2023-03-05T02:51:00.087Z,99.82
2023-03-05T02:52:00.109Z,99.93
2023-03-05T02:53:00.109Z,99.57
2023-03-05T02:54:00.056Z,99.71
2023-03-05T02:55:00.038Z,99.67
2023-03-05T02:56:00.024Z,99.67
2023-03-05T02:57:00.063Z,99.51
2023-03-05T02:58:00.053Z,99.67
2023-03-05T02:59:00.030Z,99.77
2023-03-05T03:00:00.050Z,99.77
2023-03-05T03:01:00.136Z,99.99
2023-03-05T03:01:59.958Z,99.99
2023-03-05T03:02:59.987Z,99.82
2023-03-05T03:03:59.952Z,99.88
2023-03-05T03:04:59.932Z,99.61
2023-03-05T03:05:59.921Z,99.93
2023-03-05T03:06:59.903Z,99.82
2023-03-05T03:07:59.915Z,99.99
2023-03-05T03:08:59.875Z,99.99
2023-03-05T03:09:59.891Z,99.99
2023-03-05T03:10:59.860Z,99.99
2023-03-05T03:11:59.846Z,99.99
2023-03-05T03:12:59.833Z,99.99
2023-03-05T03:13:59.849Z,99.99
2023-03-05T03:14:59.851Z,99.99
2023-03-05T03:15:59.809Z,99.99
2023-03-05T03:16:59.806Z,99.98
2023-03-05T03:17:59.785Z,99.93
2023-03-05T03:18:59.762Z,99.93
2023-03-05T03:19:59.758Z,99.93
2023-03-05T03:20:59.765Z,99.93
2023-03-05T03:21:59.743Z,99.71
2023-03-05T03:22:59.752Z,99.40
2023-03-05T03:23:59.717Z,99.55
2023-03-05T03:24:59.699Z,99.61
2023-03-05T03:25:59.693Z,99.61
2023-03-05T03:26:59.682Z,99.61
2023-03-05T03:27:59.694Z,98.77
2023-03-05T03:28:59.672Z,98.98
2023-03-05T03:29:59.665Z,99.08
2023-03-05T03:30:59.667Z,98.88
2023-03-05T03:31:59.667Z,99.30
2023-03-05T03:32:59.627Z,98.88
2023-03-05T03:33:59.603Z,98.92
2023-03-05T03:34:59.594Z,98.82
2023-03-05T03:35:59.654Z,99.40
2023-03-05T03:36:59.601Z,99.55
2023-03-05T03:37:59.591Z,99.66
2023-03-05T03:38:59.547Z,99.51
2023-03-05T03:39:59.556Z,99.66
2023-03-05T03:40:59.530Z,99.51
2023-03-05T03:41:59.515Z,99.61
2023-03-05T03:42:59.499Z,99.51
2023-03-05T03:43:59.488Z,99.40
2023-03-05T03:44:59.495Z,99.93
2023-03-05T03:45:59.631Z,99.61
2023-03-05T03:46:59.473Z,99.30
2023-03-05T03:47:59.444Z,99.82
2023-03-05T03:48:59.428Z,99.93
2023-03-05T03:49:59.427Z,99.71
2023-03-05T03:50:59.426Z,99.71
2023-03-05T03:51:59.413Z,99.08
2023-03-05T03:52:59.404Z,98.71
2023-03-05T03:53:59.395Z,98.92
2023-03-05T03:54:59.384Z,98.82
2023-03-05T03:55:59.360Z,98.61
2023-03-05T03:56:59.346Z,98.92
2023-03-05T03:57:59.365Z,98.82
2023-03-05T03:58:59.317Z,99.30
2023-03-05T03:59:59.318Z,99.08
2023-03-05T04:00:59.303Z,99.55
2023-03-05T04:01:59.311Z,99.44
2023-03-05T04:02:59.292Z,99.76
2023-03-05T04:03:59.313Z,99.55
2023-03-05T04:04:59.276Z,99.97
2023-03-05T04:05:59.247Z,99.30
2023-03-05T04:06:59.257Z,99.71
2023-03-05T04:07:59.229Z,99.71
2023-03-05T04:08:59.206Z,99.71
2023-03-05T04:09:59.273Z,99.61
2023-03-05T04:10:59.205Z,99.93
2023-03-05T04:11:59.194Z,99.71
2023-03-05T04:12:59.177Z,99.82
2023-03-05T04:13:59.182Z,99.93
2023-03-05T04:14:59.162Z,99.93
2023-03-05T04:15:59.224Z,99.30
2023-03-05T04:16:59.120Z,99.82
2023-03-05T04:17:59.130Z,99.71
2023-03-05T04:18:59.096Z,99.93
2023-03-05T04:19:59.116Z,99.99
2023-03-05T04:20:59.073Z,99.99
2023-03-05T04:21:59.083Z,99.99
2023-03-05T04:22:59.052Z,99.99
2023-03-05T04:23:59.070Z,99.99
2023-03-05T04:24:59.027Z,99.99
2023-03-05T04:25:59.023Z,99.99
2023-03-05T04:26:59.011Z,99.99
2023-03-05T04:27:59.013Z,99.99
2023-03-05T04:28:59.002Z,99.99
2023-03-05T04:29:58.975Z,99.99
2023-03-05T04:30:58.974Z,99.99
2023-03-05T04:31:59.038Z,99.99
2023-03-05T04:32:58.938Z,99.99
2023-03-05T04:33:58.946Z,99.99
2023-03-05T04:34:58.928Z,99.99
2023-03-05T04:35:58.946Z,99.99
2023-03-05T04:36:58.892Z,99.99
2023-03-05T04:37:58.897Z,99.99
2023-03-05T04:38:58.870Z,99.82
2023-03-05T04:39:58.885Z,99.93
2023-03-05T04:40:58.868Z,99.82
2023-03-05T04:41:58.837Z,99.99
2023-03-05T04:42:58.837Z,99.99
2023-03-05T04:43:58.838Z,99.99
2023-03-05T04:44:58.803Z,99.99
2023-03-05T04:45:58.812Z,99.99
2023-03-05T04:46:58.781Z,99.93
2023-03-05T04:47:58.766Z,99.99
2023-03-05T04:48:58.761Z,99.93
2023-03-05T04:49:58.772Z,99.82
2023-03-05T04:50:58.751Z,99.82
2023-03-05T04:51:58.749Z,99.61
2023-03-05T04:52:58.710Z,99.71
2023-03-05T04:53:58.691Z,99.99
2023-03-05T04:54:58.693Z,99.51
2023-03-05T04:55:58.709Z,99.67
2023-03-05T04:56:58.676Z,99.82
2023-03-05T04:57:58.655Z,99.51
2023-03-05T04:58:58.666Z,99.40
2023-03-05T04:59:58.630Z,99.77
2023-03-05T05:00:58.618Z,99.35
2023-03-05T05:01:58.716Z,98.98
2023-03-05T05:02:58.662Z,99.19
2023-03-05T05:03:58.616Z,98.88
2023-03-05T05:04:58.574Z,98.77
2023-03-05T05:05:58.580Z,98.31
2023-03-05T05:06:58.576Z,98.77
2023-03-05T05:07:58.555Z,98.14
2023-03-05T05:08:58.557Z,98.04
2023-03-05T05:09:58.527Z,98.31
2023-03-05T05:10:58.507Z,97.89
2023-03-05T05:11:58.492Z,98.10
2023-03-05T05:12:58.510Z,98.35
2023-03-05T05:13:58.568Z,97.93
2023-03-05T05:14:58.464Z,97.58
2023-03-05T05:15:58.501Z,97.72
2023-03-05T05:16:58.443Z,97.62
2023-03-05T05:17:58.450Z,97.09
2023-03-05T05:18:58.463Z,97.20
2023-03-05T05:19:58.406Z,97.09
2023-03-05T05:20:58.404Z,97.20
2023-03-05T05:21:58.426Z,96.89
2023-03-05T05:22:58.375Z,96.57
2023-03-05T05:23:58.467Z,96.47
2023-03-05T05:24:58.362Z,96.57
2023-03-05T05:25:58.344Z,96.47
2023-03-05T05:26:58.353Z,96.57
2023-03-05T05:27:58.349Z,96.57
2023-03-05T05:28:58.313Z,96.99
2023-03-05T05:29:58.293Z,96.57
2023-03-05T05:30:58.323Z,96.99
2023-03-05T05:31:58.323Z,96.57
2023-03-05T05:32:58.266Z,96.89
2023-03-05T05:33:58.273Z,96.36
2023-03-05T05:34:58.239Z,96.25
2023-03-05T05:35:58.278Z,96.47
2023-03-05T05:36:58.241Z,96.67
2023-03-05T05:37:58.240Z,96.47
2023-03-05T05:38:58.201Z,96.36
2023-03-05T05:39:58.202Z,96.47
2023-03-05T05:40:58.180Z,96.57
2023-03-05T05:41:58.166Z,96.67
2023-03-05T05:42:58.241Z,96.47
2023-03-05T05:43:58.151Z,96.89
2023-03-05T05:44:58.157Z,96.57
2023-03-05T05:45:58.246Z,96.67
2023-03-05T05:46:58.114Z,97.20
2023-03-05T05:47:58.114Z,96.47
2023-03-05T05:48:58.093Z,96.15
2023-03-05T05:49:58.073Z,96.78
2023-03-05T05:50:58.088Z,96.89
2023-03-05T05:51:58.067Z,96.78
2023-03-05T05:52:58.047Z,96.78
2023-03-05T05:53:58.049Z,96.89
2023-03-05T05:54:58.054Z,96.04
2023-03-05T05:55:58.014Z,96.67
2023-03-05T05:56:58.002Z,96.15
2023-03-05T05:57:58.005Z,96.89
2023-03-05T05:58:57.987Z,96.78
2023-03-05T05:59:57.986Z,96.67
2023-03-05T06:00:57.985Z,96.57
2023-03-05T06:01:58.043Z,96.78
2023-03-05T06:02:57.982Z,96.04
2023-03-05T06:03:57.924Z,96.15
2023-03-05T06:04:58.394Z,96.57
2023-03-05T06:05:57.893Z,96.78
2023-03-05T06:06:57.918Z,96.15
2023-03-05T06:07:57.872Z,95.94
2023-03-05T06:08:57.865Z,96.04
2023-03-05T06:09:57.868Z,95.94
2023-03-05T06:10:57.863Z,95.94
2023-03-05T06:11:57.854Z,96.04
2023-03-05T06:12:57.827Z,95.90
2023-03-05T06:13:57.806Z,95.94
2023-03-05T06:14:57.797Z,96.15
2023-03-05T06:15:57.811Z,95.84
2023-03-05T06:16:57.820Z,95.48
2023-03-05T06:17:57.761Z,96.04
2023-03-05T06:18:57.751Z,95.79
2023-03-05T06:19:57.737Z,95.79
2023-03-05T06:20:57.749Z,95.73
2023-03-05T06:21:57.727Z,95.73
2023-03-05T06:23:05.382Z,95.84
2023-03-05T06:23:57.712Z,95.90
2023-03-05T06:25:05.358Z,95.79
2023-03-05T06:25:57.696Z,96.11
2023-03-05T06:26:57.682Z,95.79
2023-03-05T06:28:06.570Z,95.52
2023-03-05T06:28:57.652Z,95.58
2023-03-05T06:29:57.625Z,95.48
2023-03-05T06:30:57.732Z,95.48
2023-03-05T06:31:57.650Z,95.58
2023-03-05T06:32:57.596Z,95.37
2023-03-05T06:33:57.662Z,94.85
2023-03-05T06:34:57.574Z,95.06
2023-03-05T06:35:57.646Z,94.64
2023-03-05T06:36:57.552Z,94.43
2023-03-05T06:37:57.570Z,94.85
2023-03-05T06:38:57.539Z,94.43
2023-03-05T06:39:57.513Z,94.38
2023-03-05T06:40:57.540Z,94.60
2023-03-05T06:41:57.557Z,94.38
2023-03-05T06:42:57.481Z,94.64
2023-03-05T06:43:57.464Z,93.97
2023-03-05T06:44:57.510Z,93.65
2023-03-05T06:45:57.471Z,93.87
2023-03-05T06:46:57.459Z,93.97
2023-03-05T06:47:57.429Z,94.18
2023-03-05T06:48:57.425Z,94.22
2023-03-05T06:49:57.405Z,94.22
2023-03-05T06:50:57.408Z,93.55
2023-03-05T06:51:57.399Z,94.18
2023-03-05T06:52:57.397Z,93.97
2023-03-05T06:53:57.366Z,93.76
2023-03-05T06:54:57.354Z,94.07
2023-03-05T06:55:57.338Z,93.59
2023-03-05T06:56:57.378Z,94.18
2023-03-05T06:57:57.330Z,94.13
2023-03-05T06:58:57.300Z,93.87
2023-03-05T06:59:57.288Z,94.07
2023-03-05T07:00:57.311Z,93.97
2023-03-05T07:01:57.284Z,93.97
2023-03-05T07:02:57.280Z,94.13
2023-03-05T07:03:57.241Z,94.24
2023-03-05T07:04:57.257Z,93.40
2023-03-05T07:05:57.240Z,93.82
2023-03-05T07:06:57.225Z,93.61
2023-03-05T07:07:57.195Z,94.03
2023-03-05T07:08:57.224Z,94.34
2023-03-05T07:09:57.178Z,94.56
2023-03-05T07:10:57.200Z,94.56
2023-03-05T07:11:57.167Z,94.03
2023-03-05T07:12:57.167Z,94.13
2023-03-05T07:13:57.126Z,94.87
2023-03-05T07:14:57.155Z,94.51
2023-03-05T07:15:57.104Z,94.51
2023-03-05T07:16:57.134Z,94.51
2023-03-05T07:17:57.085Z,95.18
2023-03-05T07:18:57.083Z,94.66
2023-03-05T07:19:57.081Z,94.97
2023-03-05T07:20:57.068Z,95.39
2023-03-05T07:21:57.038Z,95.39
2023-03-05T07:22:57.054Z,95.29
2023-03-05T07:23:57.031Z,95.66
2023-03-05T07:24:57.037Z,95.56
2023-03-05T07:25:57.016Z,95.87
2023-03-05T07:26:57.017Z,95.50
2023-03-05T07:27:56.973Z,95.81
2023-03-05T07:28:56.990Z,95.87
2023-03-05T07:29:56.967Z,95.60
2023-03-05T07:30:57.039Z,95.66
2023-03-05T07:31:56.934Z,95.76
2023-03-05T07:32:56.961Z,95.98
2023-03-05T07:33:56.923Z,95.87
2023-03-05T07:34:56.922Z,95.66
2023-03-05T07:35:56.935Z,95.45
2023-03-05T07:36:56.933Z,95.45
2023-03-05T07:37:56.912Z,95.35
2023-03-05T07:38:56.866Z,95.31
2023-03-05T07:39:56.837Z,95.98
2023-03-05T07:40:56.831Z,95.72
2023-03-05T07:41:56.836Z,95.66
2023-03-05T07:42:56.814Z,95.62
2023-03-05T07:43:56.805Z,95.66
2023-03-05T07:44:56.808Z,95.51
2023-03-05T07:45:56.870Z,95.93
2023-03-05T07:46:56.768Z,95.93
2023-03-05T07:47:56.769Z,95.41
2023-03-05T07:48:56.747Z,95.41
2023-03-05T07:49:56.734Z,95.31
2023-03-05T07:50:56.720Z,95.41
2023-03-05T07:51:56.723Z,95.05
2023-03-05T07:52:56.721Z,95.21
2023-03-05T07:53:56.700Z,94.49
2023-03-05T07:54:56.676Z,94.07
2023-03-05T07:55:56.707Z,93.44
2023-03-05T07:56:56.659Z,93.33
2023-03-05T07:57:56.639Z,92.65
2023-03-05T07:58:56.635Z,92.85
2023-03-05T07:59:56.615Z,92.50
2023-03-05T08:00:56.652Z,92.96
2023-03-05T08:01:56.603Z,92.13
2023-03-05T08:02:56.594Z,92.85
2023-03-05T08:03:56.683Z,92.44
2023-03-05T08:04:56.588Z,92.82
2023-03-05T08:05:56.542Z,92.65
2023-03-05T08:06:56.565Z,92.60
2023-03-05T08:07:56.523Z,92.82
2023-03-05T08:08:56.527Z,92.40
2023-03-05T08:09:56.503Z,92.92
2023-03-05T08:10:56.499Z,92.60
2023-03-05T08:11:56.495Z,91.77
2023-03-05T08:12:56.506Z,91.83
2023-03-05T08:13:56.465Z,92.04
2023-03-05T08:14:56.449Z,92.14
2023-03-05T08:15:56.486Z,91.00
2023-03-05T08:16:56.443Z,90.75
2023-03-05T08:17:56.426Z,90.26
2023-03-05T08:18:56.403Z,89.84
2023-03-05T08:19:56.397Z,89.74
2023-03-05T08:20:56.380Z,89.53
2023-03-05T08:21:56.550Z,89.26
2023-03-05T08:22:56.352Z,89.58
2023-03-05T08:23:56.339Z,91.03
2023-03-05T08:24:56.334Z,90.93
2023-03-05T08:25:56.396Z,91.00
2023-03-05T08:26:56.344Z,90.89
2023-03-05T08:27:56.318Z,90.93
2023-03-05T08:28:56.295Z,91.25
2023-03-05T08:29:56.277Z,91.14
2023-03-05T08:30:56.328Z,90.72
2023-03-05T08:31:56.285Z,90.83
2023-03-05T08:32:56.276Z,90.78
2023-03-05T08:33:56.223Z,90.89
2023-03-05T08:34:56.243Z,91.00
2023-03-05T08:35:56.280Z,90.68
2023-03-05T08:36:56.208Z,90.68
2023-03-05T08:37:56.198Z,91.31
2023-03-05T08:38:56.180Z,91.20
2023-03-05T08:39:56.193Z,90.89
2023-03-05T08:40:56.176Z,90.64
2023-03-05T08:41:56.157Z,90.95
2023-03-05T08:42:56.143Z,90.33
2023-03-05T08:43:56.132Z,90.12
2023-03-05T08:44:56.110Z,89.91
2023-03-05T08:45:56.289Z,91.06
2023-03-05T08:46:56.114Z,90.16
2023-03-05T08:47:56.075Z,90.95
2023-03-05T08:48:56.126Z,90.64
2023-03-05T08:49:56.052Z,91.12
2023-03-05T08:50:56.051Z,91.06
2023-03-05T08:51:56.028Z,90.18
2023-03-05T08:52:56.051Z,90.01
2023-03-05T08:53:56.043Z,90.01
2023-03-05T08:54:55.990Z,89.76
2023-03-05T08:55:55.991Z,89.87
2023-03-05T08:56:55.981Z,90.08
2023-03-05T08:57:55.988Z,90.85
2023-03-05T08:58:55.960Z,90.91
2023-03-05T08:59:55.949Z,91.06
2023-03-05T09:00:55.921Z,91.12
2023-03-05T09:01:56.042Z,90.53
2023-03-05T09:02:56.065Z,91.06
2023-03-05T09:03:55.931Z,90.01
2023-03-05T09:04:55.958Z,89.97
2023-03-05T09:05:55.868Z,91.16
2023-03-05T09:06:55.886Z,90.81
2023-03-05T09:07:55.853Z,90.01
2023-03-05T09:08:56.690Z,90.95
2023-03-05T09:09:55.874Z,91.02
2023-03-05T09:10:55.951Z,91.79
2023-03-05T09:11:55.828Z,91.16
2023-03-05T09:12:55.804Z,90.64
2023-03-05T09:13:55.792Z,90.43
2023-03-05T09:14:55.777Z,91.37
2023-03-05T09:15:55.822Z,90.95
2023-03-05T09:16:55.765Z,91.69
2023-03-05T09:17:55.741Z,91.64
2023-03-05T09:18:55.725Z,91.58
2023-03-05T09:19:55.724Z,92.10
2023-03-05T09:20:55.725Z,91.89
2023-03-05T09:21:57.088Z,91.75
2023-03-05T09:22:55.677Z,91.54
2023-03-05T09:23:55.696Z,92.47
2023-03-05T09:24:55.650Z,92.16
2023-03-05T09:25:55.659Z,91.71
2023-03-05T09:26:55.685Z,91.08
2023-03-05T09:27:55.649Z,91.71
2023-03-05T09:28:55.656Z,91.60
2023-03-05T09:29:55.609Z,90.97
2023-03-05T09:30:55.584Z,90.41
2023-03-05T09:31:55.629Z,90.72
2023-03-05T09:32:55.582Z,90.77
2023-03-05T09:33:55.604Z,90.66
2023-03-05T09:34:55.539Z,91.08
2023-03-05T09:35:55.613Z,90.77
2023-03-05T09:36:55.536Z,90.41
2023-03-05T09:37:55.509Z,91.04
2023-03-05T09:38:55.519Z,90.77
2023-03-05T09:39:55.492Z,90.87
2023-03-05T09:40:55.466Z,90.56
2023-03-05T09:41:55.466Z,90.97
2023-03-05T09:42:55.499Z,90.60
2023-03-05T09:43:55.438Z,90.97
2023-03-05T09:44:55.436Z,90.60
2023-03-05T09:45:55.451Z,90.25
2023-03-05T09:46:55.404Z,90.87
2023-03-05T09:47:55.417Z,90.97
2023-03-05T09:48:55.400Z,91.04
2023-03-05T09:49:55.390Z,90.41
2023-03-05T09:50:55.389Z,90.83
2023-03-05T09:51:55.352Z,90.93
2023-03-05T09:52:55.377Z,90.72
2023-03-05T09:53:55.328Z,90.20
2023-03-05T09:54:55.341Z,89.89
2023-03-05T09:55:55.309Z,90.10
2023-03-05T09:56:55.300Z,89.89
2023-03-05T09:57:55.277Z,90.72
2023-03-05T09:58:56.297Z,90.89
2023-03-05T09:59:55.263Z,90.64
2023-03-05T10:00:55.261Z,90.85
2023-03-05T10:01:55.240Z,89.75
2023-03-05T10:02:55.261Z,89.22
2023-03-05T10:03:55.239Z,88.70
2023-03-05T10:04:55.225Z,88.91
2023-03-05T10:05:55.197Z,89.12
2023-03-05T10:06:55.186Z,89.01
2023-03-05T10:07:55.174Z,89.22
2023-03-05T10:08:55.176Z,89.75
2023-03-05T10:09:55.150Z,89.64
2023-03-05T10:10:55.158Z,90.64
2023-03-05T10:11:55.130Z,89.95
2023-03-05T10:12:55.130Z,89.85
2023-03-05T10:13:55.101Z,90.10
2023-03-05T10:14:55.094Z,90.77
2023-03-05T10:15:55.095Z,90.77
2023-03-05T10:16:55.135Z,90.97
2023-03-05T10:17:55.056Z,91.50
2023-03-05T10:18:55.048Z,92.44
2023-03-05T10:19:55.035Z,92.12
2023-03-05T10:20:55.075Z,92.22
2023-03-05T10:21:55.008Z,92.33
2023-03-05T10:22:55.000Z,92.44
2023-03-05T10:23:54.984Z,92.18
2023-03-05T10:24:55.000Z,92.60
2023-03-05T10:25:55.016Z,92.46
2023-03-05T10:26:54.998Z,92.56
2023-03-05T10:27:54.942Z,91.37
2023-03-05T10:28:54.934Z,90.64
2023-03-05T10:29:54.960Z,90.64
2023-03-05T10:30:54.920Z,90.33
2023-03-05T10:31:54.930Z,90.50
2023-03-05T10:32:54.899Z,90.81
2023-03-05T10:33:54.874Z,89.81
2023-03-05T10:34:54.889Z,89.70
2023-03-05T10:35:54.893Z,89.85
2023-03-05T10:36:57.130Z,89.91
2023-03-05T10:37:54.859Z,90.54
2023-03-05T10:38:54.819Z,90.44
2023-03-05T10:39:54.814Z,90.68
2023-03-05T10:40:54.809Z,90.58
2023-03-05T10:41:54.782Z,90.85
2023-03-05T10:42:54.767Z,90.58
2023-03-05T10:43:54.793Z,90.68
2023-03-05T10:44:54.782Z,90.83
2023-03-05T10:45:54.778Z,90.52
2023-03-05T10:46:55.959Z,91.04
2023-03-05T10:47:54.717Z,91.81
2023-03-05T10:48:54.711Z,92.12
2023-03-05T10:49:54.746Z,92.71
2023-03-05T10:50:54.689Z,92.60
2023-03-05T10:51:54.679Z,93.23
2023-03-05T10:52:54.675Z,93.18
2023-03-05T10:53:54.651Z,92.25
2023-03-05T10:54:54.630Z,92.25
2023-03-05T10:55:54.714Z,92.35
2023-03-05T10:56:54.626Z,91.62
2023-03-05T10:57:54.622Z,91.83
2023-03-05T10:58:54.584Z,91.27
2023-03-05T10:59:54.621Z,90.85
2023-03-05T11:00:54.685Z,91.68
2023-03-05T11:01:54.553Z,91.58
2023-03-05T11:02:54.649Z,91.37
2023-03-05T11:03:54.533Z,90.95
2023-03-05T11:04:54.579Z,90.95
2023-03-05T11:05:54.505Z,89.91
2023-03-05T11:06:54.505Z,90.01
2023-03-05T11:07:54.490Z,89.85
2023-03-05T11:08:54.470Z,89.64
2023-03-05T11:09:54.461Z,89.37
2023-03-05T11:10:54.468Z,89.89
2023-03-05T11:11:54.437Z,90.83
2023-03-05T11:12:54.446Z,90.66
2023-03-05T11:13:54.457Z,91.08
2023-03-05T11:14:54.401Z,91.50
2023-03-05T11:15:56.468Z,92.40
2023-03-05T11:16:54.371Z,92.18
2023-03-05T11:17:54.395Z,92.14
2023-03-05T11:18:54.354Z,93.18
2023-03-05T11:19:54.366Z,92.52
2023-03-05T11:20:54.327Z,92.10
2023-03-05T11:21:54.350Z,92.10
2023-03-05T11:22:54.322Z,92.41
2023-03-05T11:23:54.306Z,91.58
2023-03-05T11:24:54.280Z,91.47
2023-03-05T11:25:54.296Z,91.53
2023-03-05T11:26:54.257Z,90.22
2023-03-05T11:27:54.837Z,90.81
2023-03-05T11:28:54.273Z,90.60
2023-03-05T11:29:54.231Z,90.45
2023-03-05T11:30:54.244Z,90.81
2023-03-05T11:31:54.234Z,89.56
2023-03-05T11:32:54.206Z,89.35
2023-03-05T11:33:54.186Z,89.94
2023-03-05T11:34:54.195Z,89.94
2023-03-05T11:35:54.248Z,89.17
2023-03-05T11:36:54.160Z,88.85
2023-03-05T11:37:54.153Z,89.00
2023-03-05T11:38:54.120Z,89.00
2023-03-05T11:39:54.113Z,89.89
2023-03-05T11:40:54.121Z,89.79
2023-03-05T11:41:54.101Z,88.85
2023-03-05T11:42:54.076Z,88.75
2023-03-05T11:43:54.088Z,88.54
2023-03-05T11:44:54.112Z,88.02
2023-03-05T11:45:54.108Z,87.60
2023-03-05T11:46:54.032Z,87.40
2023-03-05T11:47:54.034Z,87.50
2023-03-05T11:48:54.053Z,86.98
2023-03-05T11:49:54.058Z,86.57
2023-03-05T11:50:54.010Z,87.08
2023-03-05T11:51:54.011Z,86.35
2023-03-05T11:52:54.019Z,85.63
2023-03-05T11:53:53.968Z,85.31
2023-03-05T11:54:53.973Z,86.81
2023-03-05T11:55:53.962Z,87.33
2023-03-05T11:56:53.938Z,86.29
2023-03-05T11:57:53.913Z,86.25
2023-03-05T11:58:53.893Z,86.35
2023-03-05T11:59:53.896Z,86.21
2023-03-05T12:00:53.889Z,86.73
2023-03-05T12:01:53.943Z,86.69
2023-03-05T12:02:54.862Z,85.75
2023-03-05T12:03:53.947Z,85.80
2023-03-05T12:04:53.829Z,85.28
2023-03-05T12:05:53.837Z,84.55
2023-03-05T12:06:54.366Z,85.73
2023-03-05T12:07:53.799Z,85.46
2023-03-05T12:08:53.806Z,86.60
2023-03-05T12:09:53.845Z,85.98
2023-03-05T12:10:53.768Z,85.56
2023-03-05T12:11:53.779Z,85.50
2023-03-05T12:12:53.752Z,86.58
2023-03-05T12:13:53.738Z,87.06
2023-03-05T12:14:53.736Z,87.16
2023-03-05T12:15:53.742Z,86.33
2023-03-05T12:16:53.736Z,87.06
2023-03-05T12:17:53.693Z,86.96
2023-03-05T12:18:53.698Z,86.71
2023-03-05T12:19:53.671Z,86.08
2023-03-05T12:20:53.798Z,86.50
2023-03-05T12:21:53.685Z,86.19
2023-03-05T12:22:53.630Z,86.15
2023-03-05T12:23:53.745Z,86.29
2023-03-05T12:24:53.712Z,86.19
2023-03-05T12:25:53.616Z,86.88
2023-03-05T12:26:53.614Z,86.91
2023-03-05T12:27:53.578Z,86.29
2023-03-05T12:28:53.571Z,85.88
2023-03-05T12:29:53.562Z,86.75
2023-03-05T12:30:53.554Z,86.47
2023-03-05T12:31:53.561Z,86.47
2023-03-05T12:32:53.542Z,87.20
2023-03-05T12:33:53.508Z,87.27
2023-03-05T12:34:53.492Z,87.20
2023-03-05T12:35:53.553Z,87.06
2023-03-05T12:36:53.506Z,87.20
2023-03-05T12:37:53.476Z,87.30
2023-03-05T12:38:53.488Z,86.37
2023-03-05T12:39:53.445Z,87.41
2023-03-05T12:40:53.431Z,87.83
2023-03-05T12:41:53.427Z,88.14
2023-03-05T12:42:53.418Z,88.45
2023-03-05T12:43:53.420Z,88.66
2023-03-05T12:44:53.425Z,88.56
2023-03-05T12:45:53.412Z,89.39
2023-03-05T12:46:53.407Z,88.98
2023-03-05T12:47:53.378Z,89.70
2023-03-05T12:48:53.380Z,89.91
2023-03-05T12:49:53.366Z,89.56
2023-03-05T12:50:53.325Z,88.98
2023-03-05T12:51:53.326Z,88.45